Time;durP1;ratioP1;P1;durP2;ratioP2;P2;SDS_P1;SDS_P2;PMS_P1;PMS_P2;Temp;Humidity;BMP_temperature;BMP_pressure;BME280_temperature;BME280_humidity;BME280_pressure;Samples;Min_cycle;Max_cycle;Signal;HPM_P1;HPM_P2
2022/08/02 07:58:41;;;;;;;6.53;5.85;;;;;;;20.56;68.58;101579.91;5313238;27;20175;-72
2022/08/02 08:01:13;;;;;;;7.63;5.43;;;;;;;20.57;68.27;101584.34;5300561;28;20085;-72
2022/08/02 08:03:44;;;;;;;6.28;5.30;;;;;;;20.69;68.83;101581.63;5283948;28;20051;-77
2022/08/02 08:06:16;;;;;;;5.72;5.13;;;;;;;20.77;67.85;101569.47;5288136;28;20020;-73
2022/08/02 08:08:47;;;;;;;6.65;4.85;;;;;;;20.87;67.58;101565.44;5292912;28;20069;-73
2022/08/02 08:11:19;;;;;;;6.60;4.32;;;;;;;21.02;67.71;101572.47;5296668;28;20020;-73
2022/08/02 08:13:53;;;;;;;5.78;3.90;;;;;;;21.11;66.53;101566.75;5284005;28;20024;-72
2022/08/02 08:16:27;;;;;;;4.27;3.83;;;;;;;21.21;66.01;101571.97;5290701;28;20021;-73
2022/08/02 08:19:01;;;;;;;5.40;3.65;;;;;;;21.19;65.33;101577.13;5293947;28;20602;-73
2022/08/02 08:21:34;;;;;;;4.70;3.83;;;;;;;21.22;64.31;101566.00;5284539;28;20024;-73
2022/08/02 08:24:05;;;;;;;5.65;3.63;;;;;;;21.36;63.77;101579.00;5294205;28;20020;-73
2022/08/02 08:26:38;;;;;;;4.60;3.13;;;;;;;21.40;63.30;101568.69;5289949;28;20369;-72
2022/08/02 08:29:09;;;;;;;6.07;3.30;;;;;;;21.43;62.34;101563.19;5287612;28;20019;-74
2022/08/02 08:31:41;;;;;;;3.25;2.95;;;;;;;21.59;62.31;101569.00;5289699;28;20024;-73
2022/08/02 08:34:13;;;;;;;5.97;3.20;;;;;;;21.62;62.06;101561.81;5297398;28;20024;-74
2022/08/02 08:36:44;;;;;;;3.35;2.70;;;;;;;21.69;62.06;101562.91;5280820;28;20472;-74
2022/08/02 08:39:15;;;;;;;2.55;2.30;;;;;;;21.79;60.48;101555.19;5279065;28;20025;-73
2022/08/02 08:41:47;;;;;;;3.17;2.53;;;;;;;21.86;59.93;101552.63;5291330;28;20024;-74
2022/08/02 08:44:18;;;;;;;6.72;6.07;;;;;;;21.89;59.19;101554.75;5278536;28;20017;-74
2022/08/02 08:46:50;;;;;;;4.55;2.65;;;;;;;22.01;59.41;101563.25;5291293;28;20032;-73
2022/08/02 08:49:29;;;;;;;4.65;2.45;;;;;;;22.07;57.76;101566.66;5300097;28;20471;-73
2022/08/02 08:52:04;;;;;;;5.95;3.10;;;;;;;22.14;57.59;101570.56;5287530;28;20013;-74
2022/08/02 08:54:37;;;;;;;2.55;2.17;;;;;;;22.20;57.44;101565.53;5287832;28;20434;-74
2022/08/02 08:57:09;;;;;;;6.95;2.60;;;;;;;22.20;58.24;101573.19;5289349;28;20131;-74
2022/08/02 08:59:41;;;;;;;4.40;2.72;;;;;;;22.21;58.27;101563.50;5304005;28;20081;-72
2022/08/02 09:02:12;;;;;;;2.47;1.83;;;;;;;22.23;58.15;101559.16;5312839;28;20025;-75
2022/08/02 09:04:44;;;;;;;5.65;2.60;;;;;;;22.27;57.61;101559.28;5301473;28;20020;-74
2022/08/02 09:07:15;;;;;;;7.15;4.13;;;;;;;22.28;56.98;101560.94;5315334;28;20035;-74
2022/08/02 09:09:46;;;;;;;4.60;2.13;;;;;;;22.34;55.56;101562.34;5289429;28;20036;-74
2022/08/02 09:12:21;;;;;;;5.25;2.10;;;;;;;22.32;54.11;101564.72;5293121;28;20036;-73
2022/08/02 09:14:52;;;;;;;2.93;2.37;;;;;;;22.40;53.62;101560.94;5301775;28;20406;-72
2022/08/02 09:17:26;;;;;;;3.00;2.00;;;;;;;22.55;53.94;101556.59;5301374;28;20079;-72
2022/08/02 09:20:10;;;;;;;2.40;2.00;;;;;;;22.56;53.19;101550.56;5301755;28;20031;-73
2022/08/02 09:22:41;;;;;;;3.45;2.33;;;;;;;22.65;52.73;101558.09;5301013;28;20036;-73
2022/08/02 09:25:15;;;;;;;2.70;2.35;;;;;;;22.68;52.64;101557.41;5290761;28;20504;-74
2022/08/02 09:27:47;;;;;;;5.07;2.03;;;;;;;22.77;52.60;101552.41;5297017;28;20479;-73
2022/08/02 09:30:18;;;;;;;3.55;2.13;;;;;;;22.88;50.16;101562.06;5290192;28;20047;-73
2022/08/02 09:32:49;;;;;;;2.45;1.65;;;;;;;22.91;49.29;101549.22;5283368;28;20034;-73
2022/08/02 09:35:41;;;;;;;6.93;4.45;;;;;;;23.05;48.13;101554.50;5296611;28;20025;-73
2022/08/02 09:38:13;;;;;;;2.33;2.13;;;;;;;23.03;47.00;101548.38;5296541;28;20041;-74
2022/08/02 09:40:44;;;;;;;3.00;1.50;;;;;;;23.11;46.59;101558.72;5295731;28;20043;-74
2022/08/02 09:43:19;;;;;;;2.63;1.55;;;;;;;23.21;47.29;101558.22;5289069;28;20017;-74
2022/08/02 09:45:50;;;;;;;2.17;1.45;;;;;;;23.18;46.94;101561.78;5289346;28;20045;-74
2022/08/02 09:48:25;;;;;;;1.83;1.60;;;;;;;23.26;46.21;101555.13;5299253;28;20025;-75
2022/08/02 09:50:56;;;;;;;2.63;1.63;;;;;;;23.19;46.48;101552.94;5290211;28;20460;-74
2022/08/02 09:53:29;;;;;;;2.28;1.50;;;;;;;23.55;46.06;101567.31;5300865;28;20305;-74
2022/08/02 09:56:01;;;;;;;3.55;1.30;;;;;;;23.34;45.47;101562.69;5285134;28;20021;-74
2022/08/02 09:58:45;;;;;;;3.30;1.90;;;;;;;23.37;46.10;101558.31;5284812;28;20098;-75
2022/08/02 10:01:17;;;;;;;2.47;1.88;;;;;;;23.40;45.18;101552.72;5283798;28;20268;-74
2022/08/02 10:03:56;;;;;;;4.03;1.48;;;;;;;23.59;45.32;101568.22;5288454;28;20486;-72
2022/08/02 10:06:28;;;;;;;2.13;1.85;;;;;;;23.56;45.04;101563.28;5296387;28;20112;-72
2022/08/02 10:08:59;;;;;;;2.05;1.45;;;;;;;23.63;45.25;101552.16;5297996;28;20107;-74
2022/08/02 10:11:31;;;;;;;2.20;1.52;;;;;;;23.70;44.29;101549.53;5287979;28;20028;-72
2022/08/02 10:14:04;;;;;;;4.05;1.48;;;;;;;23.78;43.70;101556.25;5296199;28;20434;-74
2022/08/02 10:16:39;;;;;;;1.58;1.48;;;;;;;23.80;44.17;101551.88;5284791;28;20056;-75
2022/08/02 10:19:10;;;;;;;2.55;1.60;;;;;;;23.84;43.74;101546.28;5284545;28;20020;-75
2022/08/02 10:21:57;;;;;;;3.00;1.42;;;;;;;23.94;43.50;101551.41;5299772;28;20407;-74
2022/08/02 10:24:30;;;;;;;3.00;1.30;;;;;;;24.02;42.61;101543.91;5293323;28;20025;-72
2022/08/02 10:27:03;;;;;;;2.55;1.48;;;;;;;24.20;41.55;101539.53;5283709;28;20021;-73
2022/08/02 10:29:36;;;;;;;2.85;1.35;;;;;;;24.35;42.21;101532.22;5285088;28;20031;-74
2022/08/02 10:32:29;;;;;;;3.95;1.60;;;;;;;24.34;42.55;101533.41;5286798;28;20024;-75
2022/08/02 10:35:16;;;;;;;3.17;1.60;;;;;;;24.40;42.42;101533.94;5283877;28;20028;-75
2022/08/02 10:37:52;;;;;;;1.67;1.35;;;;;;;24.48;42.49;101532.94;5288425;28;20040;-75
2022/08/02 10:40:27;;;;;;;2.72;1.50;;;;;;;24.61;41.76;101537.31;5294955;28;20170;-75
2022/08/02 10:42:58;;;;;;;3.45;1.40;;;;;;;24.67;41.50;101533.00;5296986;28;20051;-76
2022/08/02 10:45:29;;;;;;;3.38;1.40;;;;;;;24.64;41.77;101533.72;5287584;28;20017;-76
2022/08/02 10:48:10;;;;;;;4.70;1.17;;;;;;;24.65;41.59;101529.72;5304392;28;20077;-75
2022/08/02 10:50:44;;;;;;;4.68;1.40;;;;;;;24.65;41.60;101541.06;5291892;28;20027;-75
2022/08/02 10:53:25;;;;;;;2.47;1.50;;;;;;;24.57;40.96;101532.75;5299912;28;20387;-74
2022/08/02 10:56:02;;;;;;;2.97;1.33;;;;;;;24.55;40.97;101535.16;5288314;28;20048;-74
2022/08/02 10:58:33;;;;;;;5.50;5.00;;;;;;;24.65;40.41;101532.56;5295995;28;20051;-75
2022/08/02 11:01:29;;;;;;;2.72;1.25;;;;;;;24.69;41.06;101533.44;5301168;28;20035;-74
2022/08/02 11:04:03;;;;;;;1.52;1.33;;;;;;;24.97;40.34;101528.78;5288630;28;20447;-74
2022/08/02 11:07:06;;;;;;;3.42;1.55;;;;;;;24.98;40.76;101530.41;5293819;28;20035;-75
2022/08/02 11:09:38;;;;;;;3.35;1.40;;;;;;;24.93;40.84;101528.72;5284946;28;20028;-74
2022/08/02 11:12:12;;;;;;;1.40;1.17;;;;;;;24.94;39.91;101525.50;5289681;28;20024;-74
2022/08/02 11:15:04;;;;;;;4.97;1.48;;;;;;;24.98;40.13;101534.09;5284702;28;20028;-74
2022/08/02 11:17:53;;;;;;;2.97;1.55;;;;;;;24.99;40.13;101529.25;5288017;28;20032;-74
2022/08/02 11:20:26;;;;;;;2.38;1.50;;;;;;;25.11;40.26;101529.94;5290850;28;20466;-74
2022/08/02 11:23:33;;;;;;;2.35;1.38;;;;;;;25.12;39.50;101525.88;5298609;28;20040;-74
2022/08/02 11:26:29;;;;;;;2.22;1.48;;;;;;;25.22;38.96;101523.69;5287399;28;20428;-75
2022/08/02 11:29:04;;;;;;;;;;;;;;;25.30;38.33;101525.47;5297129;28;20039;-74
2022/08/02 11:31:40;;;;;;;2.30;1.30;;;;;;;25.23;38.17;101516.78;5287686;28;19966;-75
2022/08/02 11:34:15;;;;;;;4.05;1.67;;;;;;;25.26;38.38;101524.56;5300375;28;20051;-73
2022/08/02 11:36:48;;;;;;;;;;;;;;;25.31;38.73;101516.59;5291780;28;20446;-73
2022/08/02 11:39:22;;;;;;;1.50;1.30;;;;;;;25.33;37.67;101525.53;5298849;28;19912;-75
2022/08/02 11:41:58;;;;;;;1.75;1.30;;;;;;;25.28;37.92;101520.16;5288844;28;20065;-74
2022/08/02 11:44:39;;;;;;;4.80;1.50;;;;;;;25.43;37.86;101512.75;5299337;28;20039;-76
2022/08/02 11:47:12;;;;;;;3.22;1.27;;;;;;;25.32;37.93;101523.91;5287338;28;20090;-76
2022/08/02 11:49:44;;;;;;;5.65;1.30;;;;;;;25.41;37.77;101526.50;5298181;28;20024;-75
2022/08/02 11:52:15;;;;;;;2.13;1.38;;;;;;;25.40;37.69;101524.03;5296244;28;20028;-76
2022/08/02 11:54:48;;;;;;;2.10;1.10;;;;;;;25.56;37.87;101522.72;5284292;28;20048;-74
2022/08/02 11:57:22;;;;;;;5.28;1.17;;;;;;;25.60;37.11;101528.50;5288232;28;20123;-74
2022/08/02 11:59:55;;;;;;;5.00;2.20;;;;;;;25.69;37.10;101508.38;5282474;28;20090;-77
2022/08/02 12:02:34;;;;;;;2.65;1.35;;;;;;;25.94;36.62;101509.66;5291539;28;20035;-76
2022/08/02 12:05:07;;;;;;;1.98;1.20;;;;;;;25.93;35.76;101510.88;5287951;28;20119;-74
2022/08/02 12:07:38;;;;;;;2.67;1.30;;;;;;;26.07;36.27;101506.63;5288889;28;20039;-74
2022/08/02 12:10:15;;;;;;;3.30;1.50;;;;;;;26.10;37.20;101508.72;5283785;28;20020;-75
2022/08/02 12:12:59;;;;;;;4.05;1.50;;;;;;;26.22;37.70;101505.66;5288558;28;20119;-76
2022/08/02 12:15:47;;;;;;;2.58;1.73;;;;;;;26.26;38.13;101509.41;5299723;28;20032;-77
2022/08/02 12:21:25;;;;;;;3.95;1.98;;;;;;;26.55;38.88;101498.50;5295499;28;20044;-76
2022/08/02 12:23:57;;;;;;;2.08;1.25;;;;;;;26.75;38.61;101497.16;5297143;28;20082;-78
2022/08/02 12:26:29;;;;;;;1.65;1.17;;;;;;;26.82;36.57;101497.25;5292226;28;20419;-76
2022/08/02 12:29:00;;;;;;;3.47;3.17;;;;;;;26.85;37.43;101496.47;5299755;28;20035;-76
2022/08/02 12:31:49;;;;;;;3.28;1.38;;;;;;;26.97;37.21;101491.75;5298534;28;20434;-77
2022/08/02 12:34:21;;;;;;;4.22;1.30;;;;;;;26.88;36.41;101484.31;5291743;28;20071;-74
2022/08/02 12:37:09;;;;;;;1.38;1.10;;;;;;;26.73;36.65;101493.88;5289261;28;20091;-74
2022/08/02 12:39:45;;;;;;;3.00;1.40;;;;;;;26.72;36.03;101497.94;5293089;28;20115;-73
2022/08/02 12:42:16;;;;;;;2.45;2.05;;;;;;;26.80;36.42;101488.28;5283737;28;20484;-74
2022/08/02 12:44:59;;;;;;;3.22;1.08;;;;;;;27.00;36.61;101491.81;5291621;28;20079;-75
2022/08/02 12:47:30;;;;;;;5.68;2.67;;;;;;;27.09;36.42;101494.34;5303665;28;20463;-74
2022/08/02 12:50:13;;;;;;;2.17;1.40;;;;;;;27.08;36.87;101487.84;5301780;28;20021;-74
2022/08/02 12:53:04;;;;;;;3.45;1.58;;;;;;;26.98;37.34;101488.50;5293761;28;20032;-74
2022/08/02 12:55:45;;;;;;;5.18;1.98;;;;;;;27.09;37.72;101482.94;5302766;28;20473;-74
2022/08/02 12:58:16;;;;;;;3.40;1.20;;;;;;;27.16;36.88;101477.34;5295246;28;20592;-74
2022/08/02 13:00:57;;;;;;;2.30;1.83;;;;;;;27.27;37.22;101486.03;5293200;28;20040;-74
2022/08/02 13:03:28;;;;;;;1.60;1.50;;;;;;;27.45;36.46;101480.53;5285626;28;20047;-74
2022/08/02 13:06:00;;;;;;;3.42;1.60;;;;;;;27.39;36.82;101473.56;5291445;28;20024;-73
2022/08/02 13:08:32;;;;;;;5.00;2.15;;;;;;;27.66;36.80;101469.38;5294613;28;20060;-75
2022/08/02 13:11:04;;;;;;;6.07;1.67;;;;;;;27.49;36.51;101467.97;5298978;28;20055;-77
2022/08/02 13:13:35;;;;;;;1.88;1.40;;;;;;;27.55;36.61;101474.13;5290683;28;20027;-74
2022/08/02 13:16:08;;;;;;;3.00;1.52;;;;;;;27.77;36.75;101465.81;5299338;28;20066;-78
2022/08/02 13:18:39;;;;;;;3.17;1.30;;;;;;;27.85;36.64;101467.53;5293384;28;20054;-74
2022/08/02 13:21:11;;;;;;;3.45;1.40;;;;;;;27.93;36.35;101463.53;5295985;28;20016;-78
2022/08/02 13:23:42;;;;;;;2.60;1.40;;;;;;;27.84;36.13;101466.72;5301723;28;20025;-83
2022/08/02 13:26:14;;;;;;;1.40;1.30;;;;;;;27.94;35.87;101456.59;5293019;28;20024;-74
2022/08/02 13:28:45;;;;;;;4.82;1.48;;;;;;;27.92;35.93;101467.59;5291574;28;20021;-76
2022/08/02 13:31:29;;;;;;;2.92;1.10;;;;;;;27.86;35.48;101449.22;5287537;28;20032;-76
2022/08/02 13:34:00;;;;;;;5.32;2.10;;;;;;;27.92;35.67;101461.91;5298110;28;20028;-75
2022/08/02 13:36:33;;;;;;;5.93;2.00;;;;;;;28.01;35.18;101458.72;5284849;28;20024;-75
2022/08/02 13:39:04;;;;;;;6.57;1.50;;;;;;;28.00;35.37;101452.19;5284728;28;20494;-76
2022/08/02 13:41:36;;;;;;;4.85;1.50;;;;;;;28.02;35.34;101452.63;5299829;28;20021;-77
2022/08/02 13:44:07;;;;;;;2.25;1.48;;;;;;;28.01;35.49;101459.53;5284733;28;20016;-76
2022/08/02 13:46:38;;;;;;;2.58;1.58;;;;;;;28.03;35.84;101454.25;5294417;28;20155;-76
2022/08/02 13:49:10;;;;;;;2.75;1.25;;;;;;;28.12;35.68;101449.03;5292823;28;20070;-76
2022/08/02 13:51:41;;;;;;;3.63;1.23;;;;;;;28.19;35.84;101451.09;5289441;28;20095;-77
2022/08/02 13:54:13;;;;;;;2.67;1.40;;;;;;;28.13;36.14;101441.28;5297841;28;20375;-77
2022/08/02 13:56:44;;;;;;;2.60;1.20;;;;;;;28.29;36.04;101447.50;5296487;28;20044;-76
2022/08/02 13:59:16;;;;;;;1.95;1.30;;;;;;;28.31;36.11;101432.88;5288532;28;20127;-74
2022/08/02 14:01:51;;;;;;;2.40;1.38;;;;;;;28.42;36.44;101439.44;5300798;28;20025;-74
2022/08/02 14:04:23;;;;;;;1.90;1.45;;;;;;;28.38;36.12;101427.22;5285893;28;20468;-75
2022/08/02 14:06:55;;;;;;;4.05;1.33;;;;;;;28.52;36.57;101423.63;5296924;28;20032;-76
2022/08/02 14:09:26;;;;;;;4.32;1.10;;;;;;;28.60;36.38;101426.13;5304224;28;20469;-76
2022/08/02 14:11:58;;;;;;;4.70;1.73;;;;;;;28.75;36.01;101424.16;5289072;28;20117;-77
2022/08/02 14:14:31;;;;;;;1.95;1.48;;;;;;;28.88;36.04;101421.75;5294204;28;20024;-77
2022/08/02 14:17:02;;;;;;;23.70;21.63;;;;;;;29.07;36.14;101417.78;5290033;28;20111;-78
2022/08/02 14:19:34;;;;;;;3.10;2.80;;;;;;;29.11;36.66;101427.16;5287094;28;20150;-77
2022/08/02 14:22:06;;;;;;;3.13;1.50;;;;;;;29.15;36.81;101415.75;5289770;28;20103;-78
2022/08/02 14:24:38;;;;;;;6.13;1.55;;;;;;;29.10;36.92;101422.69;5294772;28;20107;-77
2022/08/02 14:27:09;;;;;;;118.43;12.32;;;;;;;29.06;36.97;101413.28;5289166;28;20504;-77
2022/08/02 14:29:41;;;;;;;4.00;1.25;;;;;;;29.05;36.79;101408.78;5284580;28;20100;-76
2022/08/02 14:32:12;;;;;;;3.85;2.05;;;;;;;29.27;36.88;101418.22;5291199;28;20024;-76
2022/08/02 14:34:43;;;;;;;4.88;1.98;;;;;;;29.21;36.78;101409.22;5292652;28;20024;-77
2022/08/02 14:37:15;;;;;;;3.15;1.60;;;;;;;29.32;36.91;101414.16;5293049;28;20024;-77
2022/08/02 14:39:49;;;;;;;3.17;1.58;;;;;;;29.18;37.65;101406.38;5290926;28;20035;-77
2022/08/02 14:42:20;;;;;;;2.60;1.50;;;;;;;29.24;37.29;101399.03;5295670;28;20464;-76
2022/08/02 14:44:51;;;;;;;3.38;1.20;;;;;;;29.23;37.55;101397.41;5297600;28;20277;-75
2022/08/02 14:47:23;;;;;;;4.18;1.52;;;;;;;29.29;37.45;101398.63;5287352;28;20111;-74
2022/08/02 14:49:54;;;;;;;2.42;1.40;;;;;;;29.28;37.47;101393.34;5296634;28;20544;-76
2022/08/02 14:52:25;;;;;;;3.10;1.40;;;;;;;29.34;37.56;101386.81;5286512;28;20105;-77
2022/08/02 14:54:57;;;;;;;6.57;1.70;;;;;;;29.35;37.84;101387.63;5300075;28;20372;-69
2022/08/02 14:57:28;;;;;;;4.80;2.47;;;;;;;29.38;37.73;101392.56;5287060;28;20045;-76
2022/08/02 15:00:00;;;;;;;3.45;1.95;;;;;;;29.36;37.74;101387.22;5298245;28;20476;-76
2022/08/02 15:02:31;;;;;;;4.13;1.70;;;;;;;29.29;37.65;101381.50;5292035;28;20031;-76
2022/08/02 15:05:03;;;;;;;2.22;1.58;;;;;;;29.11;37.73;101384.31;5289177;28;20095;-75
2022/08/02 15:07:35;;;;;;;4.10;1.30;;;;;;;29.06;38.03;101381.06;5299474;28;20031;-78
2022/08/02 15:10:06;;;;;;;14.95;13.07;;;;;;;29.16;38.58;101378.22;5290225;28;20020;-78
2022/08/02 15:12:38;;;;;;;6.25;1.92;;;;;;;29.20;38.63;101386.81;5295500;28;20032;-78
2022/08/02 15:15:09;;;;;;;4.97;1.90;;;;;;;28.99;38.67;101388.38;5298842;28;20043;-75
2022/08/02 15:17:41;;;;;;;3.38;1.70;;;;;;;28.94;38.54;101379.34;5285921;28;20027;-76
2022/08/02 15:20:12;;;;;;;6.60;1.85;;;;;;;28.89;38.56;101377.72;5292248;28;20027;-75
2022/08/02 15:22:43;;;;;;;4.28;2.22;;;;;;;28.94;38.63;101367.94;5296172;28;20032;-73
2022/08/02 15:25:17;;;;;;;2.60;1.50;;;;;;;28.95;38.99;101376.09;5281778;28;20058;-75
2022/08/02 15:27:48;;;;;;;4.80;1.90;;;;;;;28.97;39.19;101367.16;5265139;28;20103;-77
2022/08/02 15:30:23;;;;;;;4.10;1.50;;;;;;;28.94;38.68;101365.06;5297627;28;20432;-80
2022/08/02 15:32:54;;;;;;;3.88;1.67;;;;;;;28.82;38.47;101372.00;5296128;28;20022;-73
2022/08/02 15:35:26;;;;;;;5.18;2.15;;;;;;;28.93;38.72;101367.13;5294805;28;20049;-75
2022/08/02 15:38:02;;;;;;;6.97;1.70;;;;;;;28.96;38.84;101360.59;5295687;28;20020;-75
2022/08/02 15:40:39;;;;;;;2.45;1.70;;;;;;;28.96;39.17;101359.78;5286381;28;20021;-75
2022/08/02 15:43:13;;;;;;;3.92;1.65;;;;;;;28.97;39.52;101358.59;5298534;28;20019;-74
2022/08/02 15:45:44;;;;;;;2.65;1.55;;;;;;;29.08;38.90;101367.19;5283474;28;20034;-75
2022/08/02 15:48:17;;;;;;;8.15;5.72;;;;;;;28.92;39.06;101354.09;5287713;28;20024;-74
2022/08/02 15:50:48;;;;;;;7.88;6.82;;;;;;;28.95;39.97;101358.16;5296187;28;20035;-75
2022/08/02 15:53:22;;;;;;;2.67;1.40;;;;;;;28.71;39.57;101354.84;5296337;28;20024;-75
2022/08/02 15:55:53;;;;;;;2.10;1.60;;;;;;;28.81;39.75;101354.06;5287369;28;20012;-75
2022/08/02 15:58:25;;;;;;;4.85;1.52;;;;;;;28.65;39.67;101356.44;5293544;28;20071;-75
2022/08/02 16:00:56;;;;;;;6.07;1.77;;;;;;;28.65;39.80;101352.78;5296313;28;20051;-76
2022/08/02 16:03:27;;;;;;;2.67;1.77;;;;;;;28.67;39.80;101356.84;5291022;28;20043;-76
2022/08/02 16:05:59;;;;;;;2.83;2.42;;;;;;;28.61;39.99;101349.91;5289039;28;20020;-78
2022/08/02 16:08:30;;;;;;;3.40;1.63;;;;;;;28.63;39.92;101352.34;5292768;28;20028;-79
2022/08/02 16:11:02;;;;;;;4.82;1.80;;;;;;;28.67;39.97;101342.59;5295409;28;20123;-79
2022/08/02 16:13:48;;;;;;;3.22;1.63;;;;;;;28.62;40.33;101345.84;5286844;28;20025;-75
2022/08/02 16:16:22;;;;;;;10.02;3.03;;;;;;;28.63;40.30;101347.44;5294399;28;20043;-74
2022/08/02 16:18:53;;;;;;;3.17;1.70;;;;;;;28.76;40.37;101350.75;5286092;28;20107;-76
2022/08/02 16:21:34;;;;;;;2.17;1.48;;;;;;;28.83;40.40;101342.22;5290555;28;20104;-77
2022/08/02 16:24:05;;;;;;;3.67;1.55;;;;;;;29.14;40.13;101342.72;5300288;28;20472;-77
2022/08/02 16:26:37;;;;;;;6.15;2.05;;;;;;;28.91;40.16;101343.06;5297909;28;20039;-78
2022/08/02 16:29:08;;;;;;;3.75;1.70;;;;;;;28.87;39.91;101343.06;5291359;28;20025;-76
2022/08/02 16:31:41;;;;;;;3.40;1.88;;;;;;;29.12;40.20;101336.59;5295858;28;20023;-75
2022/08/02 16:34:12;;;;;;;2.97;1.60;;;;;;;28.88;39.73;101341.81;5302940;28;20017;-75
2022/08/02 16:36:44;;;;;;;1.55;1.20;;;;;;;28.85;40.33;101344.69;5289474;28;20020;-77
2022/08/02 16:39:15;;;;;;;4.18;3.20;;;;;;;28.92;39.98;101350.41;5291385;28;20028;-76
2022/08/02 16:41:47;;;;;;;2.47;1.20;;;;;;;28.94;40.10;101343.09;5305468;28;20032;-77
2022/08/02 16:44:20;;;;;;;7.35;1.75;;;;;;;28.95;40.38;101339.00;5294423;28;20026;-77
2022/08/02 16:46:51;;;;;;;6.85;1.75;;;;;;;29.03;40.52;101332.06;5276761;28;20032;-77
2022/08/02 16:49:23;;;;;;;4.53;1.58;;;;;;;28.97;40.67;101330.03;5302507;28;20030;-77
2022/08/02 16:51:54;;;;;;;4.38;1.50;;;;;;;29.09;40.84;101334.56;5286245;28;20028;-77
2022/08/02 16:54:25;;;;;;;2.28;1.23;;;;;;;28.99;40.85;101327.56;5286915;28;20033;-77
2022/08/02 16:56:57;;;;;;;4.40;1.90;;;;;;;29.09;40.87;101331.69;5281532;28;20051;-77
2022/08/02 16:59:31;;;;;;;4.32;2.25;;;;;;;29.01;40.95;101333.69;5284476;28;20430;-77
2022/08/02 17:02:02;;;;;;;3.05;1.77;;;;;;;28.95;40.77;101333.28;5300552;28;20111;-77
2022/08/02 17:04:33;;;;;;;2.67;1.77;;;;;;;29.06;40.83;101335.38;5296834;28;20108;-77
2022/08/02 17:07:05;;;;;;;4.82;1.67;;;;;;;29.00;40.85;101330.03;5291663;28;20031;-77
2022/08/02 17:09:37;;;;;;;4.43;1.65;;;;;;;28.96;40.70;101320.63;5301962;28;20017;-77
2022/08/02 17:12:08;;;;;;;4.55;1.67;;;;;;;29.01;40.75;101322.28;5287918;28;20387;-77
2022/08/02 17:14:39;;;;;;;4.30;2.33;;;;;;;29.01;41.01;101331.66;5296935;28;20028;-77
2022/08/02 17:17:13;;;;;;;3.35;1.27;;;;;;;29.02;40.77;101321.88;5289686;28;20054;-78
2022/08/02 17:19:44;;;;;;;4.72;1.60;;;;;;;29.08;41.13;101322.31;5302186;28;20426;-78
2022/08/02 17:22:15;;;;;;;2.72;1.55;;;;;;;29.18;40.67;101327.22;5293590;28;20012;-77
2022/08/02 17:24:49;;;;;;;2.63;1.58;;;;;;;29.07;41.11;101326.41;5291165;28;20474;-78
2022/08/02 17:27:23;;;;;;;4.88;2.60;;;;;;;29.39;41.05;101319.91;5302853;28;20032;-79
2022/08/02 17:29:54;;;;;;;4.57;1.83;;;;;;;29.37;41.52;101314.59;5298808;28;20035;-78
